Main page
METAR-TAF:

METAR-TAF

Airports :

Malmstrom Air Force Base

Great Falls, Montana, United States

latitude: 47-30N, longitude: 111-11W, elevation: 3526 ft

Current weather observation

The report was made 1 hour and 7 minutes ago, at 04:55 UTC
Wind 13 mph from the South/Southwest
Temperature 23°F
Humidity 68%
Pressure 29.96 in. Hg
Visibility: 10 miles
Clear sky

METAR: KGFA 080455Z AUTO 21011KT 10SM CLR M05/M10 A2996 RMK AO2 SLP187 T10551096 $

Time: 23:02 (06:02 UTC)

Forecast

The report was made 1 hour and 0 minutes ago, at 05:02 UTC
Forecast valid from 08 at 05 UTC to 09 at 11 UTC
Wind 10 mph from the South/Southwest
Visibility 6.2 miles or more
Few clouds at a height of 10000 ft
Becoming
from 09 at 06 UTC to 09 at 07 UTC
Wind 14 mph from the South/Southwest
Visibility 6.2 miles or more
Scattered clouds at a height of 8000 ft

TAF: KGFA 080502Z 0805/0911 21009KT 9999 FEW100 QNH2983INS BECMG 0906/0907 20012KT 9999 SCT080 QNH2979INS TX00/0821Z TNM06/0805Z

Weather observations and forecasts of more than 4000 airports (METAR and TAF reports).

The available stations are represented by yellow and red dots on the map.

Hover mouse over dot to see the name of the station.

Then click to see weather observations and forecasts.

To change the map : click on the green buttons with a black cross to zoom in, on the green button with a dash to zoom out, or on the green arrows for adjacent maps.


METAR-TAF: